Time;durP1;ratioP1;P1;durP2;ratioP2;P2;SDS_P1;SDS_P2;PMS_P1;PMS_P2;Temp;Humidity;BMP_temperature;BMP_pressure;BME280_temperature;BME280_humidity;BME280_pressure;Samples;Min_cycle;Max_cycle;Signal;HPM_P1;HPM_P2
2022/04/02 00:00:43;;;;;;;4.97;2.00;;;4.20;98.60;;;;;;7347986;19;109397;-82
2022/04/02 00:03:11;;;;;;;3.97;1.77;;;4.10;98.70;;;;;;7345942;19;109849;-83
2022/04/02 00:05:39;;;;;;;5.67;2.00;;;4.20;98.80;;;;;;7347105;19;108423;-83
2022/04/02 00:08:06;;;;;;;3.80;1.67;;;4.10;98.70;;;;;;7346313;19;110271;-83
2022/04/02 00:10:33;;;;;;;7.53;1.77;;;4.20;98.80;;;;;;7344707;19;110212;-83
2022/04/02 00:13:00;;;;;;;4.53;1.90;;;4.00;99.00;;;;;;7350004;19;108461;-83
2022/04/02 00:15:27;;;;;;;3.53;1.77;;;4.00;99.00;;;;;;7346435;19;109576;-83
2022/04/02 00:17:54;;;;;;;3.90;1.73;;;4.00;99.00;;;;;;7344781;19;109122;-83
2022/04/02 00:20:21;;;;;;;6.30;1.90;;;4.10;98.80;;;;;;7343528;19;109646;-83
2022/04/02 00:25:34;;;;;;;2.33;1.60;;;4.00;99.00;;;;;;7345577;19;109024;-85
2022/04/02 00:28:01;;;;;;;2.90;2.00;;;4.00;99.00;;;;;;7346183;19;111318;-82
2022/04/02 00:30:28;;;;;;;6.23;1.73;;;4.00;99.00;;;;;;7343477;19;109661;-82
2022/04/02 00:32:55;;;;;;;3.27;1.67;;;4.00;99.00;;;;;;7345508;19;108977;-83
2022/04/02 00:35:22;;;;;;;4.03;2.03;;;4.10;99.00;;;;;;7350714;19;111066;-82
2022/04/02 00:37:49;;;;;;;5.43;1.80;;;4.10;99.00;;;;;;7343254;19;109197;-83
2022/04/02 00:40:16;;;;;;;4.03;1.80;;;4.10;99.20;;;;;;7343407;19;110368;-83
2022/04/02 00:42:44;;;;;;;4.03;1.90;;;4.10;98.90;;;;;;7345078;19;110183;-82
2022/04/02 00:45:12;;;;;;;3.13;2.20;;;4.10;98.90;;;;;;7342742;19;108389;-82
2022/04/02 00:47:39;;;;;;;2.40;1.77;;;4.10;99.00;;;;;;7342016;19;111207;-82
2022/04/02 00:50:06;;;;;;;4.57;1.57;;;4.20;99.00;;;;;;7342256;19;110634;-82
2022/04/02 00:52:33;;;;;;;5.03;1.73;;;4.10;99.00;;;;;;7342522;19;110801;-82
2022/04/02 00:55:00;;;;;;;6.23;2.00;;;4.20;98.90;;;;;;7350050;19;109348;-83
2022/04/02 00:57:29;;;;;;;3.77;1.90;;;4.20;98.80;;;;;;7341088;19;109197;-82
2022/04/02 00:59:56;;;;;;;3.73;2.00;;;4.20;98.80;;;;;;7342449;19;109139;-83
2022/04/02 01:02:23;;;;;;;3.83;1.80;;;4.10;99.00;;;;;;7345242;19;112339;-83
2022/04/02 01:04:51;;;;;;;2.90;1.70;;;4.20;98.90;;;;;;7341185;19;109123;-82
2022/04/02 01:07:21;;;;;;;4.07;2.13;;;4.10;99.00;;;;;;7342581;19;109304;-84
2022/04/02 01:09:48;;;;;;;6.53;1.77;;;4.20;98.90;;;;;;7344167;19;109277;-82
2022/04/02 01:12:15;;;;;;;3.57;1.70;;;4.20;99.00;;;;;;7341577;19;110359;-83
2022/04/02 01:14:42;;;;;;;3.97;1.80;;;4.20;98.90;;;;;;7342537;19;110693;-83
2022/04/02 01:17:09;;;;;;;4.27;1.80;;;4.10;98.80;;;;;;7348073;19;110346;-83
2022/04/02 01:19:36;;;;;;;6.40;1.90;;;4.00;99.10;;;;;;7340295;19;112144;-83
2022/04/02 01:22:04;;;;;;;4.20;2.20;;;4.10;99.10;;;;;;7342478;19;111247;-83
2022/04/02 01:24:31;;;;;;;4.13;1.73;;;4.10;98.90;;;;;;7339568;19;109600;-83
2022/04/02 01:26:58;;;;;;;4.17;2.10;;;4.10;98.90;;;;;;7336190;19;110255;-83
2022/04/02 01:29:32;;;;;;;5.83;2.10;;;4.20;98.80;;;;;;7339874;19;111335;-83
2022/04/02 01:31:59;;;;;;;4.47;2.20;;;4.20;98.50;;;;;;7339051;19;109997;-83
2022/04/02 01:34:28;;;;;;;5.57;2.03;;;4.10;98.60;;;;;;7339125;19;109475;-83
2022/04/02 01:36:55;;;;;;;4.50;2.00;;;4.10;98.70;;;;;;7339106;19;109592;-82
2022/04/02 01:39:23;;;;;;;4.80;2.10;;;4.00;98.70;;;;;;7345492;19;108596;-83
2022/04/02 01:41:50;;;;;;;3.13;1.77;;;4.00;98.70;;;;;;7341061;19;110222;-83
2022/04/02 01:44:17;;;;;;;4.47;2.20;;;4.00;98.80;;;;;;7340552;19;109256;-83
2022/04/02 01:46:44;;;;;;;4.17;2.10;;;3.90;98.90;;;;;;7340970;19;111554;-83
2022/04/02 01:49:11;;;;;;;7.00;2.00;;;4.00;98.80;;;;;;7339897;19;112122;-83
2022/04/02 01:51:38;;;;;;;3.43;1.90;;;3.90;98.80;;;;;;7340114;19;108390;-83
2022/04/02 01:54:05;;;;;;;3.73;1.47;;;3.90;98.90;;;;;;7338782;19;109202;-83
2022/04/02 01:56:32;;;;;;;3.87;1.83;;;3.90;99.00;;;;;;7342101;19;109510;-81
2022/04/02 01:58:59;;;;;;;4.10;1.80;;;3.80;98.90;;;;;;7339548;19;109266;-83
2022/04/02 02:01:27;;;;;;;5.03;1.77;;;3.70;99.20;;;;;;7348259;19;110766;-83
2022/04/02 02:03:54;;;;;;;4.03;1.70;;;3.70;99.30;;;;;;7339174;19;108462;-83
2022/04/02 02:06:22;;;;;;;4.37;1.83;;;3.70;99.20;;;;;;7340507;19;111114;-83
2022/04/02 02:08:49;;;;;;;5.47;1.93;;;3.50;99.50;;;;;;7342814;19;110208;-83
2022/04/02 02:11:18;;;;;;;3.87;1.60;;;3.50;99.60;;;;;;7339582;19;108471;-83
2022/04/02 02:13:46;;;;;;;5.80;1.90;;;3.50;99.70;;;;;;7340289;19;108672;-83
2022/04/02 02:16:13;;;;;;;3.37;1.70;;;3.50;99.60;;;;;;7340212;19;109460;-83
2022/04/02 02:18:40;;;;;;;3.93;1.90;;;3.50;99.60;;;;;;7340476;19;108700;-82
2022/04/02 02:21:07;;;;;;;5.43;2.00;;;3.60;99.60;;;;;;7338420;19;108952;-82
2022/04/02 02:23:34;;;;;;;4.60;2.13;;;3.60;99.50;;;;;;7347626;19;110027;-82
2022/04/02 02:26:01;;;;;;;4.47;1.87;;;3.50;99.70;;;;;;7341103;19;109193;-81
2022/04/02 02:28:28;;;;;;;4.00;1.80;;;3.50;99.70;;;;;;7338982;19;109333;-83
2022/04/02 02:30:57;;;;;;;4.60;1.70;;;3.60;99.60;;;;;;7337826;19;108323;-82
2022/04/02 02:36:10;;;;;;;2.90;1.53;;;3.60;99.40;;;;;;7341683;19;113378;-83
2022/04/02 02:38:37;;;;;;;8.87;1.90;;;3.60;99.80;;;;;;7340660;19;111341;-82
2022/04/02 02:41:05;;;;;;;9.67;1.77;;;3.50;99.50;;;;;;7340069;19;110028;-83
2022/04/02 02:43:32;;;;;;;4.17;1.80;;;3.50;99.60;;;;;;7340975;19;110890;-83
2022/04/02 02:45:59;;;;;;;5.23;1.40;;;3.40;99.60;;;;;;7340718;19;108721;-83
2022/04/02 02:48:26;;;;;;;4.43;1.80;;;3.50;99.60;;;;;;7339528;19;111178;-83
2022/04/02 02:50:53;;;;;;;3.67;1.60;;;3.50;99.50;;;;;;7341546;19;108246;-83
2022/04/02 02:53:20;;;;;;;5.10;1.90;;;3.40;99.30;;;;;;7339714;19;109689;-83
2022/04/02 02:55:49;;;;;;;3.10;1.50;;;3.30;99.50;;;;;;7341163;19;109298;-83
2022/04/02 02:58:16;;;;;;;3.47;1.67;;;3.20;99.70;;;;;;7342418;19;108303;-82
2022/04/02 03:00:43;;;;;;;2.63;1.53;;;3.20;99.80;;;;;;7337538;19;112023;-82
2022/04/02 03:03:10;;;;;;;5.30;1.90;;;3.30;99.80;;;;;;7342206;19;109170;-82
2022/04/02 03:05:38;;;;;;;5.30;1.47;;;3.20;99.60;;;;;;7344172;19;110447;-83
2022/04/02 03:08:05;;;;;;;4.50;1.97;;;3.10;99.80;;;;;;7339547;19;111536;-83
2022/04/02 03:10:33;;;;;;;8.43;1.90;;;3.30;99.80;;;;;;7339433;19;108363;-82
2022/04/02 03:13:00;;;;;;;3.00;1.70;;;3.30;99.60;;;;;;7341367;19;109764;-82
2022/04/02 03:15:27;;;;;;;2.80;1.47;;;3.30;99.60;;;;;;7338972;19;113358;-83
2022/04/02 03:18:02;;;;;;;4.00;1.70;;;3.20;99.70;;;;;;7340746;19;108328;-83
2022/04/02 03:20:29;;;;;;;5.00;1.57;;;3.30;99.70;;;;;;7337559;19;108684;-83
2022/04/02 03:22:57;;;;;;;3.60;1.80;;;3.30;99.50;;;;;;7339065;19;110318;-83
2022/04/02 03:25:25;;;;;;;4.33;1.40;;;3.30;99.60;;;;;;7340990;19;109955;-83
2022/04/02 03:27:53;;;;;;;4.67;2.00;;;3.20;99.50;;;;;;7343975;19;109039;-83
2022/04/02 03:30:22;;;;;;;3.07;1.77;;;3.20;99.70;;;;;;7340051;19;109636;-83
2022/04/02 03:32:51;;;;;;;2.83;1.60;;;3.20;99.60;;;;;;7336729;19;110726;-82
2022/04/02 03:35:19;;;;;;;5.47;1.57;;;3.30;99.50;;;;;;7339232;19;111689;-83
2022/04/02 03:37:48;;;;;;;3.77;1.70;;;3.30;99.50;;;;;;7339072;19;108274;-83
2022/04/02 03:40:20;;;;;;;3.70;1.70;;;3.30;99.50;;;;;;7338505;19;109765;-83
2022/04/02 03:42:48;;;;;;;2.67;1.60;;;3.20;99.60;;;;;;7339974;19;113418;-82
2022/04/02 03:45:17;;;;;;;4.50;1.90;;;3.20;99.50;;;;;;7337446;19;108454;-82
2022/04/02 03:47:45;;;;;;;5.57;1.77;;;3.10;99.60;;;;;;7338255;19;111509;-83
2022/04/02 03:50:13;;;;;;;2.53;1.50;;;3.10;99.80;;;;;;7343398;19;109751;-83
2022/04/02 03:52:40;;;;;;;5.70;1.90;;;3.10;99.80;;;;;;7337891;19;109128;-82
2022/04/02 03:55:08;;;;;;;3.07;1.67;;;3.00;99.80;;;;;;7337853;19;112183;-83
2022/04/02 03:57:36;;;;;;;2.70;1.50;;;3.00;99.80;;;;;;7338987;19;108799;-83
2022/04/02 04:00:04;;;;;;;4.27;1.90;;;3.00;99.90;;;;;;7336290;19;109784;-81
2022/04/02 04:02:32;;;;;;;3.83;1.40;;;3.00;99.80;;;;;;7337600;19;109119;-82
2022/04/02 04:04:59;;;;;;;3.90;1.97;;;3.00;99.90;;;;;;7334900;19;108752;-82
2022/04/02 04:07:26;;;;;;;7.13;1.70;;;2.90;99.90;;;;;;7337227;19;110149;-83
2022/04/02 04:09:54;;;;;;;6.23;2.00;;;2.90;99.80;;;;;;7338074;19;110261;-82
2022/04/02 04:12:21;;;;;;;3.63;1.73;;;2.90;99.90;;;;;;7343144;19;109651;-82
2022/04/02 04:14:48;;;;;;;2.90;1.70;;;2.90;99.90;;;;;;7339102;19;110115;-83
2022/04/02 04:17:15;;;;;;;3.87;1.60;;;2.90;99.80;;;;;;7337377;19;110520;-82
2022/04/02 04:19:42;;;;;;;6.80;2.20;;;3.00;99.80;;;;;;7336575;19;111509;-83
2022/04/02 04:22:10;;;;;;;2.63;1.60;;;3.00;99.70;;;;;;7338222;19;110711;-83
2022/04/02 04:24:37;;;;;;;4.10;1.90;;;3.00;99.70;;;;;;7337542;19;108725;-82
2022/04/02 04:27:04;;;;;;;3.80;1.70;;;3.00;99.70;;;;;;7337072;19;112103;-83
2022/04/02 04:29:31;;;;;;;4.03;1.70;;;3.00;99.60;;;;;;7338085;19;109428;-83
2022/04/02 04:31:58;;;;;;;4.50;1.97;;;3.10;99.60;;;;;;7339755;19;108625;-83
2022/04/02 04:34:25;;;;;;;2.97;1.40;;;3.10;99.60;;;;;;7350246;19;110779;-82
2022/04/02 04:36:53;;;;;;;5.80;1.67;;;3.00;99.50;;;;;;7346320;19;108300;-83
2022/04/02 04:39:21;;;;;;;5.43;1.80;;;3.00;99.60;;;;;;7344755;19;109103;-83
2022/04/02 04:41:48;;;;;;;6.77;1.93;;;2.90;99.70;;;;;;7341189;19;110229;-82
2022/04/02 04:44:15;;;;;;;4.57;2.07;;;3.00;99.70;;;;;;7345335;19;109145;-82
2022/04/02 04:46:43;;;;;;;4.47;1.63;;;3.00;99.70;;;;;;7344976;19;108774;-83
2022/04/02 04:49:10;;;;;;;7.80;2.13;;;3.10;99.50;;;;;;7343149;19;109715;-83
2022/04/02 04:51:37;;;;;;;4.23;1.60;;;3.10;99.40;;;;;;7344074;19;109319;-83
2022/04/02 04:54:04;;;;;;;3.37;1.87;;;3.10;99.20;;;;;;7349429;19;111976;-83
2022/04/02 04:56:31;;;;;;;3.50;1.70;;;3.10;99.20;;;;;;7343905;19;108453;-83
2022/04/02 04:58:58;;;;;;;3.33;1.60;;;3.00;99.30;;;;;;7344291;19;111509;-83
2022/04/02 05:01:25;;;;;;;3.60;1.90;;;3.00;99.30;;;;;;7340340;19;109548;-83
2022/04/02 05:03:53;;;;;;;2.60;1.43;;;3.00;99.30;;;;;;7342234;19;108316;-81
2022/04/02 05:06:20;;;;;;;3.03;1.43;;;3.10;99.10;;;;;;7342471;19;108895;-83
2022/04/02 05:08:47;;;;;;;2.93;1.57;;;3.10;99.20;;;;;;7343788;19;111909;-83
2022/04/02 05:11:15;;;;;;;4.47;1.70;;;3.10;99.00;;;;;;7345767;19;108399;-83
2022/04/02 05:13:42;;;;;;;4.77;1.77;;;3.10;99.00;;;;;;7342506;19;109312;-83
2022/04/02 05:16:10;;;;;;;7.67;1.77;;;3.00;99.00;;;;;;7349676;19;110207;-83
2022/04/02 05:18:37;;;;;;;2.87;1.63;;;3.10;99.00;;;;;;7343251;19;110991;-83
2022/04/02 05:21:05;;;;;;;2.43;1.50;;;3.00;99.00;;;;;;7342987;19;110182;-82
2022/04/02 05:23:38;;;;;;;6.20;1.60;;;3.10;98.90;;;;;;7344602;19;109291;-83
2022/04/02 05:26:05;;;;;;;2.90;1.60;;;3.10;99.10;;;;;;7344557;19;109132;-82
2022/04/02 05:28:32;;;;;;;5.30;1.60;;;3.10;98.90;;;;;;7344193;19;110240;-82
2022/04/02 05:31:00;;;;;;;3.03;2.00;;;3.10;98.80;;;;;;7343795;19;108615;-83
2022/04/02 05:33:27;;;;;;;3.13;1.93;;;3.10;98.90;;;;;;7342582;19;110656;-83
2022/04/02 05:36:10;;;;;;;6.40;1.77;;;3.10;98.80;;;;;;7343118;19;109513;-82
2022/04/02 05:38:37;;;;;;;2.90;1.53;;;3.10;99.10;;;;;;7348109;19;108873;-82
2022/04/02 05:41:04;;;;;;;2.13;1.50;;;3.10;98.90;;;;;;7343295;19;110175;-82
2022/04/02 05:43:31;;;;;;;4.83;1.80;;;3.10;98.90;;;;;;7342443;19;110665;-83
2022/04/02 05:45:59;;;;;;;4.47;1.43;;;3.10;98.90;;;;;;7342171;19;109447;-82
2022/04/02 05:48:31;;;;;;;3.60;1.60;;;3.10;99.30;;;;;;7344085;19;109290;-83
2022/04/02 05:50:58;;;;;;;4.63;1.90;;;3.10;98.80;;;;;;7343367;19;108421;-83
2022/04/02 05:53:26;;;;;;;2.73;1.73;;;3.10;98.90;;;;;;7340306;19;109126;-82
2022/04/02 05:55:53;;;;;;;3.80;1.77;;;3.20;98.80;;;;;;7343638;19;109705;-83
2022/04/02 05:58:21;;;;;;;3.30;2.03;;;3.30;98.70;;;;;;7341154;19;108457;-83
2022/04/02 06:00:49;;;;;;;5.13;2.50;;;3.40;98.50;;;;;;7345847;19;111883;-84
2022/04/02 06:03:17;;;;;;;8.03;2.33;;;3.40;98.50;;;;;;7342019;19;108486;-83
2022/04/02 06:05:45;;;;;;;11.47;2.20;;;3.40;98.60;;;;;;7341177;19;113006;-83
2022/04/02 06:08:12;;;;;;;3.77;2.17;;;3.50;98.60;;;;;;7340820;19;109691;-82
2022/04/02 06:10:39;;;;;;;5.70;2.07;;;3.50;98.60;;;;;;7341256;19;108604;-83
2022/04/02 06:13:06;;;;;;;4.73;2.10;;;3.50;98.60;;;;;;7341019;19;109395;-83
2022/04/02 06:15:34;;;;;;;5.77;1.87;;;3.50;98.70;;;;;;7341000;19;109492;-83
2022/04/02 06:18:02;;;;;;;6.00;2.13;;;3.40;98.70;;;;;;7343078;19;109554;-83
2022/04/02 06:20:29;;;;;;;2.80;2.20;;;3.50;98.70;;;;;;7341817;19;108856;-83
2022/04/02 06:22:56;;;;;;;7.00;1.80;;;3.60;98.50;;;;;;7347991;19;108908;-85
2022/04/02 06:25:23;;;;;;;3.70;1.80;;;3.60;98.60;;;;;;7342305;19;110939;-86
2022/04/02 06:27:50;;;;;;;7.23;2.20;;;3.50;98.60;;;;;;7342460;19;110469;-87
2022/04/02 06:30:20;;;;;;;4.10;1.90;;;3.50;98.80;;;;;;7341053;19;108535;-86
2022/04/02 06:32:54;;;;;;;3.77;2.07;;;3.40;99.00;;;;;;7340112;19;108069;-87
2022/04/02 06:35:22;;;;;;;5.57;1.80;;;3.30;99.20;;;;;;7339840;19;108202;-86
2022/04/02 06:37:50;;;;;;;5.83;1.83;;;3.40;99.30;;;;;;7342054;19;108424;-87
2022/04/02 06:40:17;;;;;;;3.70;1.73;;;3.40;99.10;;;;;;7344844;19;109512;-87
2022/04/02 06:42:44;;;;;;;3.97;1.70;;;3.50;99.20;;;;;;7340767;19;111675;-88
2022/04/02 06:45:12;;;;;;;5.63;1.87;;;3.60;99.10;;;;;;7346938;19;110508;-87
2022/04/02 06:47:40;;;;;;;2.57;1.57;;;3.50;99.00;;;;;;7342809;19;109137;-88
2022/04/02 06:50:09;;;;;;;4.73;1.93;;;3.60;99.10;;;;;;7341632;19;109422;-88
2022/04/02 06:52:37;;;;;;;4.87;2.37;;;3.60;99.30;;;;;;7340522;19;108355;-87
2022/04/02 06:55:05;;;;;;;3.03;1.80;;;3.60;99.10;;;;;;7341091;19;111362;-88
2022/04/02 06:57:32;;;;;;;2.83;1.97;;;3.70;99.30;;;;;;7343636;19;108248;-87
2022/04/02 06:59:59;;;;;;;3.53;2.17;;;3.80;99.30;;;;;;7341979;19;108189;-87
2022/04/02 07:02:27;;;;;;;3.73;2.03;;;3.80;99.10;;;;;;7342108;19;110697;-90
2022/04/02 07:04:54;;;;;;;5.30;2.10;;;3.90;98.90;;;;;;7344108;19;108523;-85
2022/04/02 07:07:21;;;;;;;3.27;2.00;;;3.80;98.90;;;;;;7340668;19;110426;-89
2022/04/02 07:09:48;;;;;;;5.10;1.40;;;3.90;99.00;;;;;;7339189;19;108393;-85
2022/04/02 07:12:15;;;;;;;3.77;1.90;;;4.00;98.30;;;;;;7337439;19;109129;-86
2022/04/02 07:14:43;;;;;;;2.80;1.80;;;4.10;98.50;;;;;;7340919;19;110064;-86
2022/04/02 07:17:10;;;;;;;3.80;1.60;;;4.20;98.10;;;;;;7342504;19;108893;-87
2022/04/02 07:19:38;;;;;;;2.83;1.50;;;4.30;98.00;;;;;;7345080;19;109547;-86
2022/04/02 07:22:09;;;;;;;2.07;1.40;;;4.40;97.30;;;;;;7341804;19;110537;-84
2022/04/02 07:24:41;;;;;;;3.40;1.50;;;4.40;97.30;;;;;;7343792;19;108313;-86
2022/04/02 07:27:08;;;;;;;3.33;1.67;;;4.40;97.00;;;;;;7351433;19;108571;-88
2022/04/02 07:29:35;;;;;;;4.97;1.37;;;4.50;97.30;;;;;;7346666;19;108373;-88
2022/04/02 07:32:03;;;;;;;4.17;1.80;;;4.60;97.20;;;;;;7350443;19;109173;-87
2022/04/02 07:34:30;;;;;;;2.90;1.87;;;4.70;97.20;;;;;;7349005;19;110234;-88
2022/04/02 07:36:57;;;;;;;7.10;2.00;;;4.90;97.40;;;;;;7347518;19;108904;-87
2022/04/02 07:39:32;;;;;;;2.43;1.60;;;4.90;97.00;;;;;;7350077;19;108438;-88
2022/04/02 07:42:11;;;;;;;3.87;1.67;;;5.00;96.90;;;;;;7349622;19;109361;-88
2022/04/02 07:44:57;;;;;;;4.30;1.73;;;5.10;97.00;;;;;;7346374;19;108367;-89
2022/04/02 07:47:33;;;;;;;3.53;1.60;;;5.20;96.40;;;;;;7342993;19;108111;-88
2022/04/02 07:50:06;;;;;;;4.00;1.50;;;5.20;96.30;;;;;;7352740;19;111896;-88
2022/04/02 07:52:36;;;;;;;4.83;1.73;;;5.30;95.40;;;;;;7350212;19;109380;-87
2022/04/02 07:55:06;;;;;;;4.37;1.40;;;5.30;96.10;;;;;;7344942;19;110449;-86
2022/04/02 07:57:39;;;;;;;3.00;1.47;;;5.30;95.60;;;;;;7343564;19;108989;-88
2022/04/02 08:00:10;;;;;;;3.50;1.90;;;5.20;95.70;;;;;;7344261;19;109115;-86
2022/04/02 08:02:39;;;;;;;4.87;1.60;;;5.20;95.80;;;;;;7343535;19;110107;-86
2022/04/02 08:05:10;;;;;;;6.47;1.67;;;5.20;95.40;;;;;;7342435;19;108843;-86
2022/04/02 08:07:39;;;;;;;6.70;1.57;;;5.10;94.60;;;;;;7345738;19;110873;-87
2022/04/02 08:10:10;;;;;;;3.07;1.70;;;5.20;95.40;;;;;;7346662;19;110433;-86
2022/04/02 08:12:41;;;;;;;2.60;1.60;;;5.30;95.70;;;;;;7351741;19;108446;-87
2022/04/02 08:15:11;;;;;;;4.67;1.57;;;5.40;95.20;;;;;;7346446;19;110480;-87
2022/04/02 08:17:40;;;;;;;5.60;1.40;;;5.40;94.90;;;;;;7348149;19;108543;-86
2022/04/02 08:20:08;;;;;;;3.87;1.33;;;5.40;94.60;;;;;;7348403;19;110471;-88
2022/04/02 08:22:35;;;;;;;4.20;1.80;;;5.40;94.30;;;;;;7346872;19;111530;-88
2022/04/02 08:25:03;;;;;;;3.83;1.30;;;5.50;94.20;;;;;;7347639;19;108466;-87
2022/04/02 08:27:35;;;;;;;4.53;1.30;;;5.40;94.00;;;;;;7347319;19;109173;-87
2022/04/02 08:30:10;;;;;;;5.93;1.50;;;5.50;94.40;;;;;;7346106;19;112871;-87
2022/04/02 08:33:08;;;;;;;3.03;1.33;;;5.60;93.80;;;;;;7346723;19;109588;-85
2022/04/02 08:35:49;;;;;;;2.78;1.65;;;5.60;94.00;;;;;;7354066;19;109747;-88
2022/04/02 08:38:28;;;;;;;2.53;1.47;;;5.60;94.30;;;;;;7346802;19;109064;-88
2022/04/02 08:41:24;;;;;;;4.57;1.90;;;5.70;93.90;;;;;;7348951;19;111082;-87
2022/04/02 08:44:14;;;;;;;7.17;2.07;;;5.80;94.20;;;;;;7348370;19;109431;-89
2022/04/02 08:46:43;;;;;;;1.80;1.40;;;5.70;94.20;;;;;;7347275;19;108641;-87
2022/04/02 08:49:17;;;;;;;3.13;1.70;;;5.70;94.10;;;;;;7347124;19;110674;-88
2022/04/02 08:51:46;;;;;;;3.33;1.93;;;5.60;94.10;;;;;;7345919;19;109366;-87
2022/04/02 08:54:28;;;;;;;4.13;1.57;;;5.70;94.60;;;;;;7344650;19;109180;-88
2022/04/02 08:56:59;;;;;;;4.20;1.97;;;5.70;94.70;;;;;;7346942;19;108787;-89
2022/04/02 08:59:34;;;;;;;6.13;1.97;;;5.80;94.70;;;;;;7351311;19;112463;-87
2022/04/02 09:02:20;;;;;;;4.57;2.10;;;5.90;94.40;;;;;;7345483;19;109719;-87
2022/04/02 09:04:53;;;;;;;4.63;1.60;;;5.90;94.90;;;;;;7345350;19;111519;-85
2022/04/02 09:07:47;;;;;;;3.57;1.93;;;6.00;94.90;;;;;;7347816;19;110007;-88
2022/04/02 09:10:17;;;;;;;4.20;2.20;;;5.90;94.40;;;;;;7347027;19;108728;-87
2022/04/02 09:13:27;;;;;;;3.93;2.10;;;6.00;95.10;;;;;;7347538;19;109452;-88
2022/04/02 09:16:02;;;;;;;3.95;2.40;;;6.10;94.80;;;;;;7345486;19;111097;-89
2022/04/02 09:18:57;;;;;;;10.00;1.93;;;6.20;94.70;;;;;;7346167;19;109462;-86
2022/04/02 09:22:01;;;;;;;3.23;2.13;;;6.30;94.60;;;;;;7353684;19;113014;-90
2022/04/02 09:24:58;;;;;;;7.10;2.40;;;6.30;94.60;;;;;;7347652;19;109851;-89
2022/04/02 09:27:39;;;;;;;3.83;2.00;;;6.10;94.20;;;;;;7348211;19;109953;-91
2022/04/02 09:30:37;;;;;;;3.37;2.10;;;6.00;94.40;;;;;;7346463;19;111129;-87
2022/04/02 09:33:15;;;;;;;;;;;5.90;94.40;;;;;;7348504;19;113382;-88
2022/04/02 09:36:11;;;;;;;3.80;1.83;;;5.80;94.20;;;;;;7351052;19;112573;-88
2022/04/02 09:38:45;;;;;;;3.93;2.07;;;5.80;94.30;;;;;;7348948;19;108424;-88
2022/04/02 09:41:56;;;;;;;5.03;2.00;;;5.80;94.70;;;;;;7350449;19;110370;-90
2022/04/02 09:44:32;;;;;;;4.20;2.30;;;5.90;95.20;;;;;;7346897;19;110301;-88
2022/04/02 09:47:21;;;;;;;4.73;2.43;;;6.10;95.10;;;;;;7351541;19;109596;-89
2022/04/02 09:50:11;;;;;;;6.60;2.30;;;6.20;94.50;;;;;;7346478;19;109935;-88
2022/04/02 09:52:47;;;;;;;5.03;2.10;;;6.20;94.00;;;;;;7344547;19;108870;-88
2022/04/02 09:55:20;;;;;;;3.53;2.40;;;6.10;94.10;;;;;;7345320;19;110535;-87
2022/04/02 09:58:04;;;;;;;3.17;2.40;;;6.30;94.90;;;;;;7346452;19;109989;-86
2022/04/02 10:00:46;;;;;;;3.63;2.20;;;6.40;94.70;;;;;;7344195;19;111434;-89
2022/04/02 10:03:31;;;;;;;4.70;2.27;;;6.60;94.50;;;;;;7344956;19;112166;-86
2022/04/02 10:06:24;;;;;;;4.80;2.37;;;6.60;93.60;;;;;;7342841;19;111697;-89
2022/04/02 10:08:58;;;;;;;5.53;2.10;;;6.40;93.40;;;;;;7343688;19;110410;-86
2022/04/02 10:11:28;;;;;;;4.70;2.40;;;6.30;93.80;;;;;;7350631;19;112748;-87
2022/04/02 10:14:25;;;;;;;4.40;2.30;;;6.20;93.80;;;;;;7343100;19;108118;-85
2022/04/02 10:16:56;;;;;;;4.80;2.27;;;6.20;94.20;;;;;;7344637;19;108396;-88
2022/04/02 10:19:27;;;;;;;4.33;2.10;;;6.30;94.80;;;;;;7343240;19;113410;-87
2022/04/02 10:21:57;;;;;;;5.33;2.70;;;6.50;93.80;;;;;;7345102;19;110027;-90
2022/04/02 10:24:25;;;;;;;3.43;2.23;;;6.70;94.30;;;;;;7346172;19;112368;-88
2022/04/02 10:26:55;;;;;;;3.80;2.00;;;6.80;94.00;;;;;;7344988;19;113345;-88
2022/04/02 10:29:49;;;;;;;4.50;1.90;;;6.70;93.30;;;;;;7343717;19;108747;-89
2022/04/02 10:32:21;;;;;;;4.47;2.30;;;6.70;93.40;;;;;;7346059;19;108785;-87
2022/04/02 10:34:55;;;;;;;5.27;2.33;;;6.90;93.30;;;;;;7351058;19;110246;-89
2022/04/02 10:37:27;;;;;;;2.67;2.40;;;7.10;93.30;;;;;;7346625;19;108823;-88
2022/04/02 10:40:01;;;;;;;3.77;2.10;;;7.30;93.50;;;;;;7343936;19;113370;-87
2022/04/02 10:42:42;;;;;;;5.82;2.10;;;7.60;93.30;;;;;;7345251;19;110386;-89
2022/04/02 10:45:14;;;;;;;5.53;2.35;;;7.70;92.80;;;;;;7344140;19;108435;-89
2022/04/02 10:47:53;;;;;;;4.82;2.10;;;7.80;91.80;;;;;;7343179;19;112185;-89
2022/04/02 10:50:24;;;;;;;6.28;2.05;;;7.70;91.70;;;;;;7343141;19;108139;-88
2022/04/02 10:52:51;;;;;;;3.63;2.30;;;7.80;92.20;;;;;;7342100;19;108795;-90
2022/04/02 10:55:22;;;;;;;6.00;2.50;;;7.90;92.50;;;;;;7343038;19;110155;-88
2022/04/02 10:57:49;;;;;;;3.60;2.42;;;8.20;93.30;;;;;;7347994;19;108483;-89
2022/04/02 11:00:17;;;;;;;6.55;2.42;;;8.40;93.00;;;;;;7341258;19;111871;-90
2022/04/02 11:02:50;;;;;;;6.88;2.65;;;8.50;91.80;;;;;;7341750;19;108716;-87
2022/04/02 11:05:18;;;;;;;5.35;2.10;;;8.40;91.70;;;;;;7341214;19;110030;-86
2022/04/02 11:07:49;;;;;;;3.85;2.40;;;8.20;91.30;;;;;;7341743;19;109940;-89
2022/04/02 11:10:19;;;;;;;2.83;2.10;;;8.00;91.20;;;;;;7340603;19;108607;-88
2022/04/02 11:12:48;;;;;;;5.70;2.25;;;7.90;91.70;;;;;;7340762;19;108239;-87
2022/04/02 11:15:23;;;;;;;5.45;2.15;;;7.80;91.40;;;;;;7341242;19;110987;-87
2022/04/02 11:17:53;;;;;;;4.10;2.70;;;7.90;92.00;;;;;;7340491;19;108448;-88
2022/04/02 11:20:25;;;;;;;3.53;2.25;;;8.10;92.40;;;;;;7347578;19;109143;-87
2022/04/02 11:22:52;;;;;;;4.95;2.20;;;8.10;91.20;;;;;;7340160;19;110352;-86
2022/04/02 11:25:31;;;;;;;3.13;1.83;;;8.10;91.80;;;;;;7345128;19;108399;-88
2022/04/02 11:28:10;;;;;;;3.42;1.70;;;8.20;91.40;;;;;;7340232;19;110691;-85
2022/04/02 11:30:47;;;;;;;2.20;1.77;;;8.30;85.30;;;;;;7338998;19;109005;-85
2022/04/02 11:33:16;;;;;;;3.72;1.98;;;8.30;85.90;;;;;;7341192;19;109935;-86
2022/04/02 11:36:07;;;;;;;3.67;1.80;;;8.20;86.80;;;;;;7340974;19;110615;-89
2022/04/02 11:39:01;;;;;;;4.97;1.88;;;8.10;84.80;;;;;;7341189;19;108652;-88
2022/04/02 11:41:37;;;;;;;2.83;1.80;;;8.00;85.50;;;;;;7343690;19;108915;-87
2022/04/02 11:44:14;;;;;;;3.83;2.20;;;7.80;83.40;;;;;;7337139;19;110565;-87
2022/04/02 11:47:05;;;;;;;3.73;2.20;;;7.60;85.20;;;;;;7340391;19;108525;-86
2022/04/02 11:49:38;;;;;;;3.90;1.92;;;7.60;86.00;;;;;;7338374;19;113226;-86
2022/04/02 11:52:08;;;;;;;7.95;2.50;;;7.70;88.70;;;;;;7338983;19;108793;-85
2022/04/02 11:54:41;;;;;;;4.30;2.00;;;7.80;89.00;;;;;;7337028;19;109642;-84
2022/04/02 11:57:11;;;;;;;5.78;2.30;;;7.80;88.20;;;;;;7338300;19;110356;-83
2022/04/02 11:59:52;;;;;;;5.57;2.05;;;7.70;89.50;;;;;;7336827;19;108780;-82
2022/04/02 12:02:41;;;;;;;3.55;2.00;;;7.70;89.80;;;;;;7337059;19;108919;-85
2022/04/02 12:05:13;;;;;;;4.65;2.40;;;7.60;88.80;;;;;;7341199;19;112639;-84
2022/04/02 12:07:51;;;;;;;7.25;3.05;;;7.40;90.10;;;;;;7336078;19;109110;-82
2022/04/02 12:10:46;;;;;;;3.77;2.10;;;7.30;90.10;;;;;;7339555;19;110375;-87
2022/04/02 12:13:13;;;;;;;6.47;2.20;;;7.30;91.00;;;;;;7338957;19;108216;-84
2022/04/02 12:16:05;;;;;;;4.93;2.00;;;7.30;90.00;;;;;;7339810;19;109486;-89
2022/04/02 12:18:33;;;;;;;3.58;2.17;;;7.30;88.90;;;;;;7337870;19;110467;-89
2022/04/02 12:21:07;;;;;;;4.23;2.27;;;7.30;90.00;;;;;;7339622;19;110683;-93
2022/04/02 12:23:36;;;;;;;4.70;2.13;;;7.60;90.70;;;;;;7338441;19;110940;-93
2022/04/02 12:26:04;;;;;;;3.95;2.35;;;7.80;87.80;;;;;;7340374;19;109607;-88
2022/04/02 12:28:45;;;;;;;3.47;1.83;;;7.90;87.20;;;;;;7346520;19;108380;-87
2022/04/02 12:31:12;;;;;;;3.40;2.35;;;7.90;88.10;;;;;;7342097;19;109178;-90
2022/04/02 12:33:52;;;;;;;6.47;2.30;;;7.90;88.10;;;;;;7341281;19;108545;-91
2022/04/02 12:36:30;;;;;;;5.05;2.15;;;7.80;88.80;;;;;;7341393;19;109065;-86
2022/04/02 12:39:08;;;;;;;4.22;2.33;;;7.60;90.60;;;;;;7341754;19;110389;-91
2022/04/02 12:41:50;;;;;;;4.10;2.17;;;7.40;90.60;;;;;;7339456;19;108435;-88
2022/04/02 12:44:23;;;;;;;4.93;2.47;;;7.30;90.90;;;;;;7337403;19;110920;-87
2022/04/02 12:46:54;;;;;;;4.75;2.47;;;7.30;91.20;;;;;;7338952;19;110040;-87
2022/04/02 12:49:30;;;;;;;5.05;2.83;;;7.40;91.60;;;;;;7335954;19;110217;-88
2022/04/02 12:52:29;;;;;;;7.10;2.60;;;7.50;91.40;;;;;;7338972;19;112097;-86
2022/04/02 12:54:57;;;;;;;3.40;2.03;;;7.40;91.40;;;;;;7341946;19;108507;-85
2022/04/02 12:57:31;;;;;;;5.28;2.33;;;7.40;90.60;;;;;;7347023;19;110401;-86
2022/04/02 12:59:58;;;;;;;3.55;2.28;;;7.60;91.20;;;;;;7343203;19;109573;-87
2022/04/02 13:02:25;;;;;;;3.53;2.20;;;7.80;90.30;;;;;;7346087;19;108549;-92
2022/04/02 13:05:00;;;;;;;4.30;2.42;;;8.20;90.90;;;;;;7345860;19;112103;-88
2022/04/02 13:07:30;;;;;;;4.88;2.28;;;8.60;90.50;;;;;;7344074;19;108724;-89
2022/04/02 13:09:57;;;;;;;3.63;2.00;;;8.70;87.90;;;;;;7343332;19;108408;-88
2022/04/02 13:12:25;;;;;;;7.47;2.30;;;8.80;88.50;;;;;;7345071;19;109815;-88
2022/04/02 13:15:14;;;;;;;3.47;2.30;;;8.80;86.30;;;;;;7349346;19;110538;-87